Time;durP1;ratioP1;P1;durP2;ratioP2;P2;SDS_P1;SDS_P2;PMS_P1;PMS_P2;Temp;Humidity;BMP_temperature;BMP_pressure;BME280_temperature;BME280_humidity;BME280_pressure;Samples;Min_cycle;Max_cycle;Signal;HPM_P1;HPM_P2
2023/05/21 00:00:10;;;;;;;16.90;8.02;;;;;;;12.96;100.00;101376.84;4965935;28;20117;-75
2023/05/21 00:02:41;;;;;;;17.35;8.40;;;;;;;12.92;100.00;101373.28;4967909;28;20497;-72
2023/05/21 00:05:13;;;;;;;17.08;8.15;;;;;;;12.91;100.00;101377.28;4966515;28;20050;-74
2023/05/21 00:07:40;;;;;;;19.42;8.57;;;;;;;12.89;100.00;101377.72;4968978;28;20053;-74
2023/05/21 00:10:07;;;;;;;18.52;9.02;;;;;;;12.80;100.00;101363.50;4970398;28;20050;-73
2023/05/21 00:12:34;;;;;;;18.55;8.07;;;;;;;12.84;100.00;101369.81;4962249;28;20138;-73
2023/05/21 00:15:00;;;;;;;25.38;8.48;;;;;;;12.87;100.00;101368.19;4969755;28;20054;-72
2023/05/21 00:17:27;;;;;;;16.98;7.82;;;;;;;12.89;100.00;101377.72;4967719;28;20086;-71
2023/05/21 00:19:55;;;;;;;17.75;7.97;;;;;;;12.90;100.00;101358.97;4970236;28;20321;-74
2023/05/21 00:22:22;;;;;;;15.23;7.50;;;;;;;12.81;100.00;101364.25;4963649;28;20054;-72
2023/05/21 00:24:49;;;;;;;14.55;6.97;;;;;;;12.83;100.00;101353.47;4971346;28;20082;-73
2023/05/21 00:27:18;;;;;;;17.00;7.85;;;;;;;12.83;100.00;101356.28;4968282;28;20428;-74
2023/05/21 00:29:45;;;;;;;14.48;7.28;;;;;;;12.85;100.00;101356.63;4969936;28;20058;-77
2023/05/21 00:32:11;;;;;;;16.40;7.30;;;;;;;12.84;100.00;101355.06;4968540;28;20105;-72
2023/05/21 00:34:39;;;;;;;15.05;6.85;;;;;;;12.86;100.00;101361.78;4969935;28;20061;-74
2023/05/21 00:37:05;;;;;;;16.67;7.57;;;;;;;12.82;100.00;101349.88;4970113;28;20081;-74
2023/05/21 00:39:32;;;;;;;16.27;7.15;;;;;;;12.81;100.00;101348.31;4962607;28;20144;-70
2023/05/21 00:41:59;;;;;;;17.33;7.80;;;;;;;12.82;100.00;101352.69;4970039;28;20051;-72
2023/05/21 00:44:26;;;;;;;14.32;7.15;;;;;;;12.85;100.00;101349.06;4967278;28;20121;-72
2023/05/21 00:46:53;;;;;;;18.45;7.47;;;;;;;12.84;100.00;101352.25;4970256;28;20093;-73
2023/05/21 00:49:21;;;;;;;19.05;7.75;;;;;;;12.83;100.00;101345.13;4970797;28;20062;-71
2023/05/21 00:51:48;;;;;;;14.93;7.45;;;;;;;12.83;100.00;101343.09;4970427;28;20046;-72
2023/05/21 00:54:15;;;;;;;16.95;7.55;;;;;;;12.80;100.00;101340.38;4970956;28;20134;-74
2023/05/21 00:56:41;;;;;;;16.58;6.53;;;;;;;12.80;100.00;101330.00;4969229;28;20101;-75
2023/05/21 00:59:08;;;;;;;17.42;7.93;;;;;;;12.77;100.00;101330.84;4969947;28;20074;-72
2023/05/21 01:01:35;;;;;;;16.75;8.40;;;;;;;12.76;100.00;101348.00;4968422;28;20072;-73
2023/05/21 01:04:03;;;;;;;14.02;6.93;;;;;;;12.76;100.00;101332.03;4965041;28;20047;-74
2023/05/21 01:06:33;;;;;;;13.90;6.70;;;;;;;12.74;100.00;101339.22;4962612;28;20054;-73
2023/05/21 01:09:05;;;;;;;16.90;7.03;;;;;;;12.74;100.00;101328.88;4966597;28;20046;-75
2023/05/21 01:11:45;;;;;;;18.00;7.88;;;;;;;12.75;100.00;101338.00;4968997;28;20300;-74
2023/05/21 01:14:13;;;;;;;13.77;6.88;;;;;;;12.72;100.00;101336.84;4969275;28;20061;-75
2023/05/21 01:16:45;;;;;;;17.27;7.60;;;;;;;12.71;100.00;101326.91;4968223;28;20818;-75
2023/05/21 01:19:15;;;;;;;15.50;8.15;;;;;;;12.70;100.00;101318.97;4959691;28;20047;-71
2023/05/21 01:21:45;;;;;;;17.40;7.90;;;;;;;12.68;100.00;101333.31;4970235;28;20043;-73
2023/05/21 01:24:14;;;;;;;16.20;7.43;;;;;;;12.67;100.00;101326.19;4985185;28;20043;-70
2023/05/21 01:26:42;;;;;;;16.13;7.65;;;;;;;12.65;100.00;101319.44;4968640;28;20208;-78
2023/05/21 01:29:12;;;;;;;13.88;7.10;;;;;;;12.63;100.00;101330.22;4968913;28;20062;-74
2023/05/21 01:32:03;;;;;;;15.82;7.38;;;;;;;12.61;100.00;101322.25;4970216;28;20505;-72
2023/05/21 01:34:55;;;;;;;19.00;8.40;;;;;;;12.59;100.00;101315.53;4960394;28;20140;-74
2023/05/21 01:37:47;;;;;;;15.25;7.15;;;;;;;12.55;100.00;101323.91;4967451;28;20094;-74
2023/05/21 01:40:34;;;;;;;15.90;7.20;;;;;;;12.52;100.00;101322.75;4960724;28;20112;-74
2023/05/21 01:43:04;;;;;;;17.38;7.82;;;;;;;12.52;100.00;101308.00;4970197;28;20520;-71
2023/05/21 01:45:41;;;;;;;14.57;6.72;;;;;;;12.50;100.00;101305.63;4964651;28;20541;-73
2023/05/21 01:48:09;;;;;;;14.30;7.00;;;;;;;12.51;100.00;101303.66;4968944;28;20513;-69
2023/05/21 01:50:37;;;;;;;16.63;7.32;;;;;;;12.50;100.00;101299.28;4969050;28;20093;-75
2023/05/21 01:53:04;;;;;;;16.58;7.03;;;;;;;12.50;100.00;101308.44;4967836;28;20047;-72
2023/05/21 01:55:32;;;;;;;18.55;7.30;;;;;;;12.51;100.00;101306.44;4969981;28;20145;-75
2023/05/21 01:57:59;;;;;;;15.63;7.15;;;;;;;12.52;100.00;101314.38;4967820;28;20055;-74
2023/05/21 02:00:28;;;;;;;15.10;7.38;;;;;;;12.52;100.00;101303.25;4966859;28;20047;-74
2023/05/21 02:02:55;;;;;;;15.82;7.40;;;;;;;12.52;100.00;101307.25;4969695;28;20117;-74
2023/05/21 02:05:22;;;;;;;16.02;7.28;;;;;;;12.50;100.00;101294.47;4968217;28;20066;-74
2023/05/21 02:07:52;;;;;;;16.20;7.65;;;;;;;12.50;100.00;101302.84;4968528;28;20558;-74
2023/05/21 02:10:18;;;;;;;15.38;7.63;;;;;;;12.52;100.00;101293.28;4966693;28;20050;-74
2023/05/21 02:12:45;;;;;;;15.52;7.00;;;;;;;12.48;100.00;101302.50;4968649;28;20536;-74
2023/05/21 02:15:13;;;;;;;16.27;7.40;;;;;;;12.50;100.00;101299.28;4968299;28;20156;-73
2023/05/21 02:17:41;;;;;;;15.30;7.50;;;;;;;12.48;100.00;101291.34;4967833;28;20059;-74
2023/05/21 02:20:10;;;;;;;16.98;7.88;;;;;;;12.46;100.00;101290.19;4967848;28;20070;-74
2023/05/21 02:22:45;;;;;;;13.70;6.75;;;;;;;12.47;100.00;101288.97;4968987;28;20469;-74
2023/05/21 02:25:13;;;;;;;14.65;7.50;;;;;;;12.49;100.00;101283.75;4966348;28;20051;-71
2023/05/21 02:27:41;;;;;;;16.02;7.55;;;;;;;12.48;100.00;101293.31;4969082;28;20055;-75
2023/05/21 02:30:15;;;;;;;16.63;7.97;;;;;;;12.45;100.00;101294.97;4967524;28;20054;-70
2023/05/21 02:32:42;;;;;;;15.18;7.22;;;;;;;12.42;100.00;101281.03;4969402;28;20058;-71
2023/05/21 02:35:11;;;;;;;17.73;7.75;;;;;;;12.39;100.00;101288.25;4967097;28;20053;-74
2023/05/21 02:37:39;;;;;;;17.05;8.15;;;;;;;12.42;100.00;101292.19;4969207;28;20078;-72
2023/05/21 02:40:08;;;;;;;15.35;7.38;;;;;;;12.39;100.00;101293.81;4964597;28;20137;-75
2023/05/21 02:42:38;;;;;;;18.10;8.32;;;;;;;12.36;100.00;101294.66;4968219;28;20462;-74
2023/05/21 02:45:09;;;;;;;18.25;8.32;;;;;;;12.37;100.00;101292.66;4968121;28;20039;-75
2023/05/21 02:47:45;;;;;;;15.85;7.65;;;;;;;12.36;100.00;101296.66;4968229;28;20047;-74
2023/05/21 02:50:13;;;;;;;17.25;8.77;;;;;;;12.33;100.00;101298.25;4968305;28;20525;-71
2023/05/21 02:52:45;;;;;;;18.40;8.48;;;;;;;12.30;100.00;101296.28;4965778;28;20399;-72
2023/05/21 02:55:12;;;;;;;16.33;8.07;;;;;;;12.27;100.00;101294.34;4966012;28;20077;-71
2023/05/21 02:57:38;;;;;;;17.20;7.78;;;;;;;12.26;100.00;101292.75;4968551;28;20129;-75
2023/05/21 03:00:07;;;;;;;16.45;8.13;;;;;;;12.27;100.00;101296.34;4964667;28;20054;-74
2023/05/21 03:02:33;;;;;;;16.05;8.20;;;;;;;12.26;100.00;101292.75;4961045;28;20050;-72
2023/05/21 03:05:00;;;;;;;16.75;7.50;;;;;;;12.22;100.00;101288.41;4966260;28;20363;-71
2023/05/21 03:07:27;;;;;;;18.48;8.55;;;;;;;12.25;100.00;101293.16;4981119;28;20096;-73
2023/05/21 03:09:53;;;;;;;16.10;7.90;;;;;;;12.24;100.00;101286.81;4966624;28;20050;-76
2023/05/21 03:12:20;;;;;;;15.60;7.75;;;;;;;12.22;100.00;101288.41;4967838;28;20125;-73
2023/05/21 03:14:48;;;;;;;16.33;8.07;;;;;;;12.19;100.00;101289.25;4967342;28;20074;-72
2023/05/21 03:17:15;;;;;;;17.90;8.18;;;;;;;12.16;100.00;101290.84;4966911;28;20051;-73
2023/05/21 03:19:42;;;;;;;16.15;7.65;;;;;;;12.11;100.00;101287.75;4967845;28;20133;-71
2023/05/21 03:22:10;;;;;;;17.45;8.13;;;;;;;12.07;100.00;101285.00;4965395;28;20103;-72
2023/05/21 03:24:40;;;;;;;19.10;8.00;;;;;;;12.09;100.00;101290.16;4968427;28;20053;-73
2023/05/21 03:27:06;;;;;;;16.88;7.60;;;;;;;12.09;100.00;101287.38;4968228;28;20051;-72
2023/05/21 03:29:33;;;;;;;17.25;8.27;;;;;;;12.08;100.00;101289.38;4968202;28;20093;-73
2023/05/21 03:32:00;;;;;;;15.43;7.90;;;;;;;12.07;100.00;101287.78;4967076;28;20046;-72
2023/05/21 03:34:36;;;;;;;18.40;8.40;;;;;;;12.05;100.00;101287.41;4968547;28;20055;-73
2023/05/21 03:37:03;;;;;;;16.38;8.32;;;;;;;12.03;100.00;101281.47;4966753;28;20058;-74
2023/05/21 03:39:29;;;;;;;22.73;9.05;;;;;;;12.02;100.00;101291.00;4960517;28;20054;-74
2023/05/21 03:41:56;;;;;;;19.55;8.30;;;;;;;12.01;100.00;101283.06;4971568;28;20531;-74
2023/05/21 03:44:23;;;;;;;15.38;8.00;;;;;;;12.03;100.00;101280.66;4970602;28;20513;-74
2023/05/21 03:46:49;;;;;;;17.25;9.05;;;;;;;11.99;100.00;101285.50;4969839;28;20097;-73
2023/05/21 03:49:16;;;;;;;20.15;8.27;;;;;;;11.94;100.00;101283.94;4971794;28;20089;-73
2023/05/21 03:51:42;;;;;;;17.65;9.05;;;;;;;11.94;100.00;101281.16;4970656;28;20453;-74
2023/05/21 03:54:09;;;;;;;17.00;7.88;;;;;;;11.93;100.00;101281.56;4971995;28;20560;-74
2023/05/21 03:56:35;;;;;;;17.15;8.30;;;;;;;11.91;100.00;101284.75;4969209;28;20050;-75
2023/05/21 03:59:02;;;;;;;17.15;8.32;;;;;;;11.95;100.00;101291.09;4971016;28;20113;-72
2023/05/21 04:01:35;;;;;;;19.73;8.85;;;;;;;11.92;100.00;101282.78;4964156;28;20086;-73
2023/05/21 04:04:01;;;;;;;18.60;8.52;;;;;;;11.94;100.00;101281.16;4970164;28;20137;-74
2023/05/21 04:06:29;;;;;;;16.27;7.90;;;;;;;11.92;100.00;101289.13;4971641;28;20576;-74
2023/05/21 04:08:55;;;;;;;16.63;7.90;;;;;;;11.94;100.00;101283.94;4970124;28;20133;-76
2023/05/21 04:11:22;;;;;;;15.80;8.73;;;;;;;11.94;100.00;101283.94;4970601;28;20460;-74
2023/05/21 04:13:48;;;;;;;17.98;9.27;;;;;;;11.95;100.00;101279.94;4968297;28;20051;-72
2023/05/21 04:16:17;;;;;;;17.10;8.63;;;;;;;11.97;100.00;101287.88;4965015;28;20073;-74
2023/05/21 04:18:45;;;;;;;14.95;8.07;;;;;;;11.95;100.00;101288.31;4967382;28;20825;-73
2023/05/21 04:21:12;;;;;;;18.95;9.13;;;;;;;11.97;100.00;101288.69;4971242;28;20047;-74
2023/05/21 04:23:39;;;;;;;17.48;8.70;;;;;;;11.95;100.00;101281.97;4969486;28;20042;-74
2023/05/21 04:26:06;;;;;;;18.52;8.63;;;;;;;11.99;100.00;101294.63;4971347;28;20050;-73
2023/05/21 04:28:34;;;;;;;17.02;8.57;;;;;;;12.02;100.00;101298.59;4971660;28;20073;-77
2023/05/21 04:31:01;;;;;;;18.02;9.05;;;;;;;12.04;100.00;101294.19;4967540;28;20436;-74
2023/05/21 04:33:27;;;;;;;17.88;9.18;;;;;;;12.06;100.00;101297.34;4968336;28;20416;-73
2023/05/21 04:35:54;;;;;;;18.25;9.38;;;;;;;12.05;100.00;101289.38;4970436;28;20047;-75
2023/05/21 04:38:20;;;;;;;17.38;9.13;;;;;;;12.09;100.00;101304.88;4970327;28;20050;-72
2023/05/21 04:40:51;;;;;;;17.52;8.65;;;;;;;12.10;100.00;101300.09;4963177;28;20085;-73
2023/05/21 04:43:25;;;;;;;19.83;9.45;;;;;;;12.14;100.00;101298.88;4970706;28;20050;-74
2023/05/21 04:45:55;;;;;;;18.13;8.50;;;;;;;12.11;100.00;101294.13;4971181;28;20043;-74
2023/05/21 04:48:23;;;;;;;19.33;8.40;;;;;;;12.14;100.00;101301.66;4965681;28;20086;-73
2023/05/21 04:50:52;;;;;;;15.90;8.23;;;;;;;12.15;100.00;101297.66;4958996;28;20051;-74
2023/05/21 04:53:18;;;;;;;17.02;9.02;;;;;;;12.19;100.00;101300.41;4968207;28;20055;-73
2023/05/21 04:55:45;;;;;;;16.88;8.80;;;;;;;12.21;100.00;101309.13;4970289;28;20046;-74
2023/05/21 04:58:12;;;;;;;18.95;8.65;;;;;;;12.23;100.00;101304.72;4970330;28;20101;-73
2023/05/21 05:00:40;;;;;;;19.02;9.60;;;;;;;12.23;100.00;101301.16;4970196;28;20070;-73
2023/05/21 05:03:07;;;;;;;22.45;9.45;;;;;;;12.29;100.00;101291.91;4963890;28;20055;-73
2023/05/21 05:05:34;;;;;;;18.50;9.07;;;;;;;12.33;100.00;101294.69;4983235;28;20053;-73
2023/05/21 05:08:01;;;;;;;20.05;8.95;;;;;;;12.37;100.00;101299.03;4970325;28;20051;-74
2023/05/21 05:10:27;;;;;;;17.25;8.70;;;;;;;12.37;100.00;101298.25;4969894;28;20874;-74
2023/05/21 05:12:54;;;;;;;20.10;9.80;;;;;;;12.37;100.00;101299.03;4969395;28;20129;-72
2023/05/21 05:15:21;;;;;;;17.27;8.95;;;;;;;12.41;100.00;101305.38;4967871;28;20079;-68
2023/05/21 05:17:49;;;;;;;20.90;10.07;;;;;;;12.46;100.00;101298.53;4970235;28;20051;-70
2023/05/21 05:20:15;;;;;;;17.50;9.27;;;;;;;12.47;100.00;101288.97;4969792;28;20059;-74
2023/05/21 05:22:42;;;;;;;17.63;8.68;;;;;;;12.54;100.00;101288.88;4969796;28;20631;-69
2023/05/21 05:25:09;;;;;;;16.92;8.32;;;;;;;12.57;100.00;101282.47;4968408;28;20062;-69
2023/05/21 05:27:35;;;;;;;19.52;9.13;;;;;;;12.52;100.00;101278.13;4964135;28;20117;-72
2023/05/21 05:30:04;;;;;;;19.25;10.25;;;;;;;12.56;100.00;101286.47;4966221;28;20063;-74
2023/05/21 05:32:31;;;;;;;19.63;9.65;;;;;;;12.61;100.00;101285.19;4963077;28;20043;-72
2023/05/21 05:34:57;;;;;;;17.85;8.85;;;;;;;12.63;100.00;101286.38;4950762;28;20055;-73
2023/05/21 05:37:27;;;;;;;21.23;9.25;;;;;;;12.70;100.00;101296.66;4965984;28;20062;-72
2023/05/21 05:39:54;;;;;;;20.60;9.93;;;;;;;12.76;100.00;101298.53;4968144;28;20046;-73
2023/05/21 05:42:20;;;;;;;19.73;9.07;;;;;;;12.87;100.00;101295.63;4968668;28;20101;-74
2023/05/21 05:44:47;;;;;;;17.33;9.27;;;;;;;12.90;100.00;101295.59;4967591;28;20343;-72
2023/05/21 05:47:13;;;;;;;19.58;9.35;;;;;;;12.96;100.00;101288.31;4966432;28;20592;-74
2023/05/21 05:49:40;;;;;;;19.02;9.30;;;;;;;12.93;100.00;101288.38;4962974;28;20078;-72
2023/05/21 05:52:06;;;;;;;20.80;10.32;;;;;;;12.97;100.00;101284.31;4965417;28;20414;-73
2023/05/21 05:54:33;;;;;;;19.77;9.88;;;;;;;13.01;100.00;101285.06;4965508;28;20051;-74
2023/05/21 05:57:00;;;;;;;19.65;9.50;;;;;;;13.08;100.00;101292.53;4965668;28;20508;-72
2023/05/21 05:59:26;;;;;;;17.58;9.68;;;;;;;13.10;100.00;101290.13;4966588;28;20070;-72
2023/05/21 06:01:53;;;;;;;16.45;8.38;;;;;;;13.12;100.00;101282.09;4961864;28;20050;-76
2023/05/21 06:04:19;;;;;;;18.45;9.52;;;;;;;13.15;100.00;101284.84;4964494;28;20055;-72
2023/05/21 06:06:47;;;;;;;20.15;9.98;;;;;;;13.22;100.00;101279.16;4967156;28;20374;-73
2023/05/21 06:09:13;;;;;;;18.15;9.10;;;;;;;13.29;100.00;101281.03;4968493;28;20613;-73
2023/05/21 06:11:40;;;;;;;16.88;8.75;;;;;;;13.32;100.00;101280.19;4969578;28;20125;-73
2023/05/21 06:14:06;;;;;;;21.00;9.32;;;;;;;13.37;100.00;101279.72;4969123;28;20327;-73
2023/05/21 06:16:33;;;;;;;22.55;10.90;;;;;;;13.37;100.00;101286.09;4967990;28;20074;-74
2023/05/21 06:19:00;;;;;;;20.02;11.27;;;;;;;13.40;100.00;101276.09;4966806;28;20071;-75
2023/05/21 06:21:26;;;;;;;19.42;9.13;;;;;;;13.41;100.00;101280.47;4965107;28;20126;-73
2023/05/21 06:23:53;;;;;;;20.38;10.23;;;;;;;13.53;100.00;101277.88;4969234;28;20042;-73
2023/05/21 06:26:20;;;;;;;20.60;10.63;;;;;;;13.55;100.00;101271.88;4965781;28;20130;-76
2023/05/21 06:28:47;;;;;;;22.05;10.50;;;;;;;13.52;100.00;101270.72;4962581;28;20534;-73
2023/05/21 06:31:15;;;;;;;17.92;9.60;;;;;;;13.60;100.00;101274.19;4964494;28;20074;-74
2023/05/21 06:33:41;;;;;;;19.73;10.50;;;;;;;13.62;100.00;101274.53;4966106;28;20042;-71
2023/05/21 06:36:08;;;;;;;19.33;9.88;;;;;;;13.65;100.00;101268.91;4967409;28;20058;-72
2023/05/21 06:38:35;;;;;;;20.00;10.90;;;;;;;13.72;100.00;101277.16;4968511;28;20047;-72
2023/05/21 06:41:02;;;;;;;20.42;10.00;;;;;;;13.74;100.00;101271.16;4968415;28;20093;-71
2023/05/21 06:43:29;;;;;;;20.70;10.55;;;;;;;13.87;100.00;101277.72;4961312;28;20043;-68
2023/05/21 06:45:56;;;;;;;18.65;9.55;;;;;;;13.93;100.00;101276.78;4968296;28;20133;-70
2023/05/21 06:48:22;;;;;;;19.65;11.57;;;;;;;13.97;100.00;101271.13;4968659;28;20062;-72
2023/05/21 06:50:49;;;;;;;21.20;11.32;;;;;;;13.99;100.00;101272.28;4968325;28;20078;-68
2023/05/21 06:53:15;;;;;;;21.05;11.02;;;;;;;13.99;100.00;101265.91;4963103;28;20074;-71
2023/05/21 06:55:45;;;;;;;19.67;10.95;;;;;;;14.00;100.00;101267.47;4961222;28;20046;-70
2023/05/21 06:58:11;;;;;;;21.02;10.65;;;;;;;14.06;100.00;101260.97;4964401;28;20086;-68
2023/05/21 07:00:38;;;;;;;21.10;11.02;;;;;;;14.08;100.00;101266.13;4959643;28;20134;-73
2023/05/21 07:03:04;;;;;;;24.13;10.48;;;;;;;14.15;100.00;101254.81;4963688;28;20051;-68
2023/05/21 07:05:31;;;;;;;23.77;11.10;;;;;;;14.21;100.00;101264.28;4965952;28;20134;-70
2023/05/21 07:07:57;;;;;;;21.42;11.23;;;;;;;14.26;100.00;101255.38;4968343;28;20075;-72
2023/05/21 07:10:24;;;;;;;21.13;11.57;;;;;;;14.36;100.00;101263.56;4967874;28;20085;-72
2023/05/21 07:12:50;;;;;;;18.13;9.35;;;;;;;14.47;100.00;101263.38;4968934;28;20047;-71
2023/05/21 07:15:17;;;;;;;19.50;11.18;;;;;;;14.58;100.00;101258.34;4963110;28;20542;-72
2023/05/21 07:17:44;;;;;;;19.08;10.43;;;;;;;14.70;100.00;101254.88;4966981;28;20098;-72
2023/05/21 07:20:12;;;;;;;20.13;10.68;;;;;;;14.66;100.00;101254.94;4967788;28;20054;-70
2023/05/21 07:22:38;;;;;;;21.33;11.93;;;;;;;14.74;100.00;101259.19;4958734;28;20161;-70
2023/05/21 07:25:05;;;;;;;24.40;12.35;;;;;;;14.79;100.00;101255.09;4962045;28;20051;-71
2023/05/21 07:27:32;;;;;;;19.10;10.73;;;;;;;14.82;100.00;101255.00;4961307;28;20477;-72
2023/05/21 07:29:58;;;;;;;21.02;11.60;;;;;;;14.93;100.00;101263.19;4959204;28;20129;-66
2023/05/21 07:32:27;;;;;;;21.65;11.32;;;;;;;14.99;100.00;101264.25;4965688;28;20160;-68
2023/05/21 07:34:55;;;;;;;21.60;12.25;;;;;;;15.05;100.00;101253.31;4964497;28;20094;-70
2023/05/21 07:37:21;;;;;;;20.33;11.93;;;;;;;15.12;100.00;101264.34;4959909;28;20059;-71
2023/05/21 07:39:48;;;;;;;20.60;11.25;;;;;;;15.18;100.00;101263.38;4956942;28;20134;-73
2023/05/21 07:42:15;;;;;;;20.33;11.30;;;;;;;15.23;100.00;101268.47;4964497;28;20050;-70
2023/05/21 07:44:41;;;;;;;25.98;12.18;;;;;;;15.29;100.00;101263.91;4968046;28;20468;-69
2023/05/21 07:47:08;;;;;;;21.92;12.23;;;;;;;15.38;100.00;101261.34;4965134;28;20158;-69
2023/05/21 07:49:34;;;;;;;19.90;10.55;;;;;;;15.44;100.00;101259.59;4963784;28;20120;-69
2023/05/21 07:52:01;;;;;;;19.45;11.00;;;;;;;15.49;100.00;101252.69;4966974;28;20425;-71
2023/05/21 07:54:28;;;;;;;21.38;12.20;;;;;;;15.52;100.00;101251.81;4963490;28;20051;-69
2023/05/21 07:56:55;;;;;;;21.85;11.48;;;;;;;15.58;100.00;101250.81;4966103;28;20051;-74
2023/05/21 07:59:21;;;;;;;22.13;12.85;;;;;;;15.52;100.00;101246.97;4961316;28;20478;-69
2023/05/21 08:01:48;;;;;;;21.60;12.43;;;;;;;15.49;100.00;101233.06;4965242;28;20489;-71
2023/05/21 08:04:15;;;;;;;23.60;12.25;;;;;;;15.55;100.00;101248.09;4978537;28;20539;-70
2023/05/21 08:06:41;;;;;;;20.08;11.55;;;;;;;15.63;100.00;101246.72;4960054;28;20097;-70
2023/05/21 08:09:08;;;;;;;21.73;11.75;;;;;;;15.68;100.00;101249.75;4961572;28;20751;-69
2023/05/21 08:11:35;;;;;;;22.05;11.50;;;;;;;15.74;100.00;101250.81;4958468;28;20252;-71
2023/05/21 08:14:01;;;;;;;25.98;11.90;;;;;;;15.81;100.00;101253.44;4956655;28;20074;-70
2023/05/21 08:16:28;;;;;;;26.67;12.65;;;;;;;15.89;100.00;101257.59;4959504;28;20173;-68
2023/05/21 08:18:54;;;;;;;23.27;13.25;;;;;;;15.94;100.00;101262.69;4960511;28;20047;-71
2023/05/21 08:21:21;;;;;;;20.67;11.32;;;;;;;16.02;100.00;101261.25;4960076;28;20059;-71
2023/05/21 08:23:48;;;;;;;22.38;11.90;;;;;;;16.12;100.00;101268.59;4958277;28;20055;-69
2023/05/21 08:26:17;;;;;;;25.67;13.77;;;;;;;16.20;100.00;101269.97;4958583;28;20051;-70
2023/05/21 08:28:43;;;;;;;21.05;12.95;;;;;;;16.33;100.00;101278.47;4963106;28;20082;-71
2023/05/21 08:31:11;;;;;;;22.13;11.38;;;;;;;16.50;100.00;101271.56;4968047;28;20604;-71
2023/05/21 08:33:37;;;;;;;21.60;12.25;;;;;;;16.54;100.00;101278.66;4961431;28;20449;-72
2023/05/21 08:36:05;;;;;;;25.20;13.70;;;;;;;16.59;100.00;101266.88;4968755;28;20117;-71
2023/05/21 08:38:33;;;;;;;23.25;13.35;;;;;;;16.65;100.00;101276.31;4970115;28;20077;-69
2023/05/21 08:41:00;;;;;;;23.67;13.50;;;;;;;16.70;100.00;101267.34;4968475;28;20050;-71
2023/05/21 08:43:27;;;;;;;25.23;13.45;;;;;;;16.81;100.00;101284.66;4970846;28;20117;-70
2023/05/21 08:45:57;;;;;;;25.00;12.43;;;;;;;16.92;100.00;101287.94;4971018;28;20519;-73
2023/05/21 08:48:25;;;;;;;21.83;12.57;;;;;;;17.04;100.00;101273.13;4964336;28;20632;-71
2023/05/21 08:50:53;;;;;;;19.15;10.82;;;;;;;17.12;100.00;101270.91;4968779;28;20050;-69
2023/05/21 08:53:22;;;;;;;23.75;12.80;;;;;;;17.26;100.00;101262.03;4970615;28;20083;-74
2023/05/21 08:55:55;;;;;;;21.02;11.48;;;;;;;17.39;100.00;101269.19;4970891;28;20051;-73
2023/05/21 08:58:22;;;;;;;24.90;12.98;;;;;;;17.54;100.00;101268.72;4969711;28;20109;-74
2023/05/21 09:00:48;;;;;;;23.65;12.98;;;;;;;17.65;100.00;101264.34;4964334;28;20059;-67
2023/05/21 09:03:15;;;;;;;21.98;12.45;;;;;;;17.74;100.00;101256.00;4966851;28;20051;-70
2023/05/21 09:05:43;;;;;;;21.52;13.15;;;;;;;17.88;100.00;101269.56;4968286;28;20042;-71
2023/05/21 09:08:17;;;;;;;20.67;12.13;;;;;;;17.96;100.00;101268.09;4965166;28;20082;-71
2023/05/21 09:10:51;;;;;;;22.60;13.25;;;;;;;18.07;100.00;101262.91;4956183;28;20050;-69
2023/05/21 09:13:18;;;;;;;25.63;13.15;;;;;;;18.13;100.00;101257.47;4955436;28;20051;-68
2023/05/21 09:15:45;;;;;;;23.60;12.98;;;;;;;18.21;100.00;101256.75;4969155;28;20747;-73
2023/05/21 09:18:13;;;;;;;22.77;13.73;;;;;;;18.31;100.00;101258.41;4968669;28;20043;-74
2023/05/21 09:20:40;;;;;;;25.02;13.88;;;;;;;18.43;100.00;101257.53;4970142;28;20105;-72
2023/05/21 09:23:15;;;;;;;24.27;14.55;;;;;;;18.51;100.00;101250.41;4962561;28;20113;-69
2023/05/21 09:25:47;;;;;;;24.50;15.48;;;;;;;18.66;100.00;101245.00;4969965;28;20536;-68
2023/05/21 09:28:15;;;;;;;24.98;14.13;;;;;;;18.80;100.00;101252.97;4968513;28;20088;-70
2023/05/21 09:30:46;;;;;;;26.77;13.43;;;;;;;18.82;100.00;101244.81;4966764;28;20074;-72
2023/05/21 09:33:30;;;;;;;23.38;14.20;;;;;;;18.90;100.00;101241.25;4970170;28;20066;-69
2023/05/21 09:35:56;;;;;;;23.65;13.40;;;;;;;19.05;100.00;101230.22;4968527;28;20050;-70
2023/05/21 09:38:24;;;;;;;24.98;13.40;;;;;;;19.17;100.00;101232.94;4969704;28;20063;-70
2023/05/21 09:40:55;;;;;;;22.83;13.70;;;;;;;19.38;100.00;101231.28;4968548;28;20054;-70
2023/05/21 09:43:21;;;;;;;24.52;12.93;;;;;;;19.52;100.00;101225.84;4966736;28;20055;-69
2023/05/21 09:45:55;;;;;;;23.35;13.43;;;;;;;19.56;100.00;101220.06;4967878;28;20157;-73
2023/05/21 09:48:39;;;;;;;22.25;11.68;;;;;;;19.61;100.00;101223.03;4969336;28;20054;-70
2023/05/21 09:51:09;;;;;;;24.23;14.05;;;;;;;19.75;100.00;101219.63;4969145;28;20051;-71
2023/05/21 09:53:41;;;;;;;22.65;13.82;;;;;;;19.75;100.00;101210.38;4966196;28;20051;-68
2023/05/21 09:56:08;;;;;;;24.00;13.45;;;;;;;19.96;100.00;101209.44;4969833;28;20050;-68
2023/05/21 09:58:37;;;;;;;24.67;13.93;;;;;;;20.01;100.00;101205.22;4967508;28;20094;-70
2023/05/21 10:01:03;;;;;;;22.45;13.50;;;;;;;20.13;100.00;101213.50;4969278;28;20436;-72
2023/05/21 10:03:31;;;;;;;23.85;14.20;;;;;;;20.24;100.00;101202.56;4969837;28;20070;-71
2023/05/21 10:05:59;;;;;;;21.67;12.70;;;;;;;20.42;100.00;101205.34;4969357;28;20082;-71
2023/05/21 10:08:30;;;;;;;24.55;14.18;;;;;;;20.61;100.00;101212.50;4969471;28;20146;-71
2023/05/21 10:10:57;;;;;;;24.20;13.95;;;;;;;20.64;100.00;101208.75;4968415;28;20081;-71
2023/05/21 10:13:24;;;;;;;26.80;14.30;;;;;;;20.81;100.00;101204.28;4967154;28;20604;-70
2023/05/21 10:15:58;;;;;;;25.20;14.43;;;;;;;21.02;100.00;101208.16;4968741;28;20102;-70
2023/05/21 10:18:25;;;;;;;26.05;14.85;;;;;;;21.20;100.00;101200.34;4968647;28;20059;-72
2023/05/21 10:20:52;;;;;;;25.00;13.82;;;;;;;21.34;100.00;101188.38;4968479;28;20078;-69
2023/05/21 10:23:19;;;;;;;24.85;13.27;;;;;;;21.57;100.00;101184.72;4967858;28;20054;-72
2023/05/21 10:25:48;;;;;;;23.92;13.02;;;;;;;21.57;100.00;101179.06;4967807;28;20497;-69
2023/05/21 10:28:17;;;;;;;24.23;14.07;;;;;;;21.68;100.00;101179.34;4969034;28;20051;-69
2023/05/21 10:30:43;;;;;;;23.88;12.88;;;;;;;21.62;100.00;101181.25;4968451;28;20125;-70
2023/05/21 10:33:15;;;;;;;21.20;13.35;;;;;;;21.56;100.00;101173.91;4968115;28;20194;-69
2023/05/21 10:35:44;;;;;;;21.92;14.75;;;;;;;21.56;100.00;101171.06;4967880;28;20098;-70
2023/05/21 10:38:13;;;;;;;23.58;14.07;;;;;;;21.70;100.00;101173.19;4967523;28;20058;-67
2023/05/21 10:40:39;;;;;;;23.15;14.35;;;;;;;21.67;100.00;101168.53;4968625;28;20505;-72
2023/05/21 10:43:35;;;;;;;27.25;14.82;;;;;;;21.71;100.00;101172.69;4964697;28;20059;-71
2023/05/21 10:46:27;;;;;;;23.08;14.18;;;;;;;21.85;100.00;101166.31;4967582;28;20101;-70
2023/05/21 10:49:18;;;;;;;23.83;14.57;;;;;;;21.99;100.00;101161.94;4967593;28;20153;-71
2023/05/21 10:52:03;;;;;;;24.17;13.63;;;;;;;22.06;100.00;101168.00;4967858;28;20141;-70
2023/05/21 10:54:53;;;;;;;26.58;15.13;;;;;;;22.18;100.00;101172.59;4959958;28;20507;-68
2023/05/21 10:57:39;;;;;;;20.55;12.48;;;;;;;22.17;100.00;101172.31;4960282;28;20047;-72
2023/05/21 11:00:11;;;;;;;25.85;14.57;;;;;;;22.04;100.00;101166.94;4960453;28;20080;-71
2023/05/21 11:02:38;;;;;;;22.13;14.00;;;;;;;22.16;100.00;101163.03;4965708;28;20456;-71
2023/05/21 11:05:05;;;;;;;23.35;13.20;;;;;;;22.18;100.00;101164.09;4963294;28;20134;-73
2023/05/21 11:08:00;;;;;;;23.20;14.25;;;;;;;22.32;100.00;101162.59;4964267;28;20165;-71
2023/05/21 11:10:40;;;;;;;23.60;13.15;;;;;;;22.39;100.00;101169.91;4963246;28;20081;-71
2023/05/21 11:13:12;;;;;;;22.88;14.10;;;;;;;22.47;100.00;101159.75;4964237;28;20110;-70